sensor_id;sensor_type;location;lat;lon;timestamp;pressure;altitude;pressure_sealevel;temperature;humidity
50310;BME280;36207;51.850;21.698;2023-04-28T00:00:49;100383.84;;;3.02;62.98
50310;BME280;36207;51.850;21.698;2023-04-28T00:03:18;100381.71;;;3.01;63.46
50310;BME280;36207;51.850;21.698;2023-04-28T00:05:44;100384.86;;;2.99;63.54
50310;BME280;36207;51.850;21.698;2023-04-28T00:08:12;100383.13;;;2.98;63.68
50310;BME280;36207;51.850;21.698;2023-04-28T00:10:38;100384.15;;;3.01;63.47
50310;BME280;36207;51.850;21.698;2023-04-28T00:13:04;100383.13;;;3.04;63.77
50310;BME280;36207;51.850;21.698;2023-04-28T00:15:31;100383.76;;;3.08;63.80
50310;BME280;36207;51.850;21.698;2023-04-28T00:17:57;100387.05;;;3.11;64.02
50310;BME280;36207;51.850;21.698;2023-04-28T00:20:24;100383.21;;;3.12;64.08
50310;BME280;36207;51.850;21.698;2023-04-28T00:22:50;100381.95;;;3.13;64.28
50310;BME280;36207;51.850;21.698;2023-04-28T00:25:17;100382.55;;;3.14;64.29
50310;BME280;36207;51.850;21.698;2023-04-28T00:27:43;100386.11;;;3.16;64.49
50310;BME280;36207;51.850;21.698;2023-04-28T00:30:10;100386.91;;;3.19;64.81
50310;BME280;36207;51.850;21.698;2023-04-28T00:32:36;100389.14;;;3.22;64.50
50310;BME280;36207;51.850;21.698;2023-04-28T00:35:03;100384.10;;;3.26;64.20
50310;BME280;36207;51.850;21.698;2023-04-28T00:37:29;100385.67;;;3.26;64.33
50310;BME280;36207;51.850;21.698;2023-04-28T00:39:56;100382.60;;;3.25;64.20
50310;BME280;36207;51.850;21.698;2023-04-28T00:42:22;100383.83;;;3.22;64.37
50310;BME280;36207;51.850;21.698;2023-04-28T00:44:49;100380.55;;;3.20;64.13
50310;BME280;36207;51.850;21.698;2023-04-28T00:47:17;100380.17;;;3.15;64.50
50310;BME280;36207;51.850;21.698;2023-04-28T00:49:44;100380.69;;;3.09;64.71
50310;BME280;36207;51.850;21.698;2023-04-28T00:52:11;100382.02;;;3.06;64.98
50310;BME280;36207;51.850;21.698;2023-04-28T00:54:37;100384.84;;;3.03;64.75
50310;BME280;36207;51.850;21.698;2023-04-28T00:57:04;100392.45;;;3.03;64.40
50310;BME280;36207;51.850;21.698;2023-04-28T00:59:30;100394.10;;;3.04;64.64
50310;BME280;36207;51.850;21.698;2023-04-28T01:01:58;100394.02;;;3.03;64.98
50310;BME280;36207;51.850;21.698;2023-04-28T01:04:25;100391.77;;;2.98;64.77
50310;BME280;36207;51.850;21.698;2023-04-28T01:06:54;100392.50;;;2.93;64.63
50310;BME280;36207;51.850;21.698;2023-04-28T01:09:21;100394.18;;;2.89;64.59
50310;BME280;36207;51.850;21.698;2023-04-28T01:11:47;100394.23;;;2.84;65.09
50310;BME280;36207;51.850;21.698;2023-04-28T01:14:14;100395.12;;;2.80;64.83
50310;BME280;36207;51.850;21.698;2023-04-28T01:16:40;100396.95;;;2.77;64.82
50310;BME280;36207;51.850;21.698;2023-04-28T01:19:07;100396.98;;;2.72;64.94
50310;BME280;36207;51.850;21.698;2023-04-28T01:21:35;100399.08;;;2.65;65.06
50310;BME280;36207;51.850;21.698;2023-04-28T01:24:01;100397.41;;;2.59;65.40
50310;BME280;36207;51.850;21.698;2023-04-28T01:26:27;100397.19;;;2.58;65.33
50310;BME280;36207;51.850;21.698;2023-04-28T01:28:54;100400.34;;;2.55;65.52
50310;BME280;36207;51.850;21.698;2023-04-28T01:31:20;100397.63;;;2.54;65.47
50310;BME280;36207;51.850;21.698;2023-04-28T01:33:46;100397.23;;;2.53;65.44
50310;BME280;36207;51.850;21.698;2023-04-28T01:36:13;100399.19;;;2.50;65.78
50310;BME280;36207;51.850;21.698;2023-04-28T01:38:39;100397.48;;;2.47;65.35
50310;BME280;36207;51.850;21.698;2023-04-28T01:41:06;100400.27;;;2.45;65.14
50310;BME280;36207;51.850;21.698;2023-04-28T01:43:32;100400.67;;;2.42;64.98
50310;BME280;36207;51.850;21.698;2023-04-28T01:45:58;100403.64;;;2.38;64.93
50310;BME280;36207;51.850;21.698;2023-04-28T01:48:24;100405.02;;;2.34;64.86
50310;BME280;36207;51.850;21.698;2023-04-28T01:50:51;100410.98;;;2.29;64.77
50310;BME280;36207;51.850;21.698;2023-04-28T01:53:17;100415.84;;;2.25;64.83
50310;BME280;36207;51.850;21.698;2023-04-28T01:55:45;100414.38;;;2.19;64.84
50310;BME280;36207;51.850;21.698;2023-04-28T01:58:13;100417.89;;;2.14;64.84
50310;BME280;36207;51.850;21.698;2023-04-28T02:00:39;100415.16;;;2.09;65.13
50310;BME280;36207;51.850;21.698;2023-04-28T02:03:05;100417.06;;;2.02;65.16
50310;BME280;36207;51.850;21.698;2023-04-28T02:05:32;100415.30;;;2.02;65.07
50310;BME280;36207;51.850;21.698;2023-04-28T02:07:58;100416.13;;;2.05;65.11
50310;BME280;36207;51.850;21.698;2023-04-28T02:10:25;100416.81;;;2.05;65.68
50310;BME280;36207;51.850;21.698;2023-04-28T02:12:51;100414.77;;;2.04;65.55
50310;BME280;36207;51.850;21.698;2023-04-28T02:15:17;100413.25;;;2.04;65.47
50310;BME280;36207;51.850;21.698;2023-04-28T02:17:44;100411.02;;;2.01;66.04
50310;BME280;36207;51.850;21.698;2023-04-28T02:20:11;100413.16;;;1.98;66.04
50310;BME280;36207;51.850;21.698;2023-04-28T02:22:39;100409.83;;;1.95;65.59
50310;BME280;36207;51.850;21.698;2023-04-28T02:25:07;100414.05;;;1.93;65.59
50310;BME280;36207;51.850;21.698;2023-04-28T02:27:34;100416.13;;;1.91;65.35
50310;BME280;36207;51.850;21.698;2023-04-28T02:30:04;100416.88;;;1.90;65.58
50310;BME280;36207;51.850;21.698;2023-04-28T02:32:31;100416.75;;;1.90;65.98
50310;BME280;36207;51.850;21.698;2023-04-28T02:34:58;100412.86;;;1.90;66.20
50310;BME280;36207;51.850;21.698;2023-04-28T02:37:24;100412.13;;;1.91;66.54
50310;BME280;36207;51.850;21.698;2023-04-28T02:39:51;100413.52;;;1.91;66.17
50310;BME280;36207;51.850;21.698;2023-04-28T02:42:18;100411.55;;;1.91;66.09
50310;BME280;36207;51.850;21.698;2023-04-28T02:44:44;100411.48;;;1.90;66.06
50310;BME280;36207;51.850;21.698;2023-04-28T02:47:11;100415.94;;;1.89;65.95
50310;BME280;36207;51.850;21.698;2023-04-28T02:49:37;100416.23;;;1.87;65.87
50310;BME280;36207;51.850;21.698;2023-04-28T02:52:03;100416.04;;;1.83;65.81
50310;BME280;36207;51.850;21.698;2023-04-28T02:54:30;100416.42;;;1.77;65.68
50310;BME280;36207;51.850;21.698;2023-04-28T02:56:59;100417.95;;;1.73;65.69
50310;BME280;36207;51.850;21.698;2023-04-28T02:59:26;100417.27;;;1.70;65.58
50310;BME280;36207;51.850;21.698;2023-04-28T03:01:52;100420.67;;;1.67;65.49
50310;BME280;36207;51.850;21.698;2023-04-28T03:04:18;100423.02;;;1.66;65.48
50310;BME280;36207;51.850;21.698;2023-04-28T03:06:45;100423.08;;;1.65;65.66
50310;BME280;36207;51.850;21.698;2023-04-28T03:09:14;100421.66;;;1.66;65.64
50310;BME280;36207;51.850;21.698;2023-04-28T03:11:40;100422.21;;;1.68;65.97
50310;BME280;36207;51.850;21.698;2023-04-28T03:14:07;100420.53;;;1.67;66.48
50310;BME280;36207;51.850;21.698;2023-04-28T03:16:33;100423.05;;;1.66;66.40
50310;BME280;36207;51.850;21.698;2023-04-28T03:18:59;100421.34;;;1.65;66.28
50310;BME280;36207;51.850;21.698;2023-04-28T03:21:26;100419.52;;;1.64;66.13
50310;BME280;36207;51.850;21.698;2023-04-28T03:23:53;100418.58;;;1.62;66.03
50310;BME280;36207;51.850;21.698;2023-04-28T03:26:19;100419.20;;;1.61;66.03
50310;BME280;36207;51.850;21.698;2023-04-28T03:28:46;100425.70;;;1.59;66.05
50310;BME280;36207;51.850;21.698;2023-04-28T03:31:13;100428.52;;;1.59;66.12
50310;BME280;36207;51.850;21.698;2023-04-28T03:33:39;100431.21;;;1.60;66.11
50310;BME280;36207;51.850;21.698;2023-04-28T03:36:06;100433.83;;;1.63;66.21
50310;BME280;36207;51.850;21.698;2023-04-28T03:38:33;100432.83;;;1.64;66.39
50310;BME280;36207;51.850;21.698;2023-04-28T03:40:59;100428.46;;;1.64;66.55
50310;BME280;36207;51.850;21.698;2023-04-28T03:43:26;100427.92;;;1.62;66.67
50310;BME280;36207;51.850;21.698;2023-04-28T03:45:52;100428.92;;;1.60;66.62
50310;BME280;36207;51.850;21.698;2023-04-28T03:48:19;100430.02;;;1.57;67.15
50310;BME280;36207;51.850;21.698;2023-04-28T03:50:45;100434.73;;;1.57;66.70
50310;BME280;36207;51.850;21.698;2023-04-28T03:53:11;100438.11;;;1.62;66.85
50310;BME280;36207;51.850;21.698;2023-04-28T03:55:38;100442.56;;;1.65;67.04
50310;BME280;36207;51.850;21.698;2023-04-28T03:58:04;100444.25;;;1.69;66.75
50310;BME280;36207;51.850;21.698;2023-04-28T04:00:31;100441.48;;;1.71;67.02
50310;BME280;36207;51.850;21.698;2023-04-28T04:02:57;100443.73;;;1.71;66.92
50310;BME280;36207;51.850;21.698;2023-04-28T04:05:23;100437.77;;;1.73;67.04
50310;BME280;36207;51.850;21.698;2023-04-28T04:07:50;100440.61;;;1.75;66.90
50310;BME280;36207;51.850;21.698;2023-04-28T04:10:16;100442.61;;;1.77;67.07
50310;BME280;36207;51.850;21.698;2023-04-28T04:12:42;100445.90;;;1.77;66.86
50310;BME280;36207;51.850;21.698;2023-04-28T04:15:09;100451.71;;;1.82;66.83
50310;BME280;36207;51.850;21.698;2023-04-28T04:17:35;100454.21;;;1.89;67.45
50310;BME280;36207;51.850;21.698;2023-04-28T04:20:02;100454.13;;;1.94;67.33
50310;BME280;36207;51.850;21.698;2023-04-28T04:22:28;100453.09;;;2.01;67.80
50310;BME280;36207;51.850;21.698;2023-04-28T04:24:55;100456.30;;;2.08;67.53
50310;BME280;36207;51.850;21.698;2023-04-28T04:27:21;100455.48;;;2.16;67.68
50310;BME280;36207;51.850;21.698;2023-04-28T04:29:48;100457.82;;;2.23;68.00
50310;BME280;36207;51.850;21.698;2023-04-28T04:32:14;100459.59;;;2.30;67.67
50310;BME280;36207;51.850;21.698;2023-04-28T04:34:40;100468.80;;;2.38;67.59
50310;BME280;36207;51.850;21.698;2023-04-28T04:37:08;100467.85;;;2.46;67.89
50310;BME280;36207;51.850;21.698;2023-04-28T04:39:35;100461.88;;;2.55;67.93
50310;BME280;36207;51.850;21.698;2023-04-28T04:42:01;100465.66;;;2.68;68.10
50310;BME280;36207;51.850;21.698;2023-04-28T04:44:28;100468.95;;;2.80;67.83
50310;BME280;36207;51.850;21.698;2023-04-28T04:46:54;100465.94;;;2.89;68.07
50310;BME280;36207;51.850;21.698;2023-04-28T04:49:21;100460.72;;;2.98;68.04
50310;BME280;36207;51.850;21.698;2023-04-28T04:51:47;100458.45;;;3.09;67.71
50310;BME280;36207;51.850;21.698;2023-04-28T04:54:13;100456.56;;;3.22;67.77
50310;BME280;36207;51.850;21.698;2023-04-28T04:56:39;100454.38;;;3.38;67.85
50310;BME280;36207;51.850;21.698;2023-04-28T04:59:07;100455.98;;;3.55;67.96
50310;BME280;36207;51.850;21.698;2023-04-28T05:01:34;100452.58;;;3.74;68.00
50310;BME280;36207;51.850;21.698;2023-04-28T05:04:00;100452.56;;;3.87;67.97
50310;BME280;36207;51.850;21.698;2023-04-28T05:06:27;100455.14;;;3.98;67.73
50310;BME280;36207;51.850;21.698;2023-04-28T05:08:53;100454.95;;;4.09;67.82
50310;BME280;36207;51.850;21.698;2023-04-28T05:11:21;100454.45;;;4.20;67.68
50310;BME280;36207;51.850;21.698;2023-04-28T05:13:47;100454.15;;;4.30;67.68
50310;BME280;36207;51.850;21.698;2023-04-28T05:16:14;100452.56;;;4.44;67.79
50310;BME280;36207;51.850;21.698;2023-04-28T05:18:40;100451.88;;;4.63;67.96
50310;BME280;36207;51.850;21.698;2023-04-28T05:21:07;100453.95;;;4.84;68.03
50310;BME280;36207;51.850;21.698;2023-04-28T05:23:33;100456.58;;;5.01;67.87
50310;BME280;36207;51.850;21.698;2023-04-28T05:25:59;100453.71;;;5.20;68.09
50310;BME280;36207;51.850;21.698;2023-04-28T05:28:26;100457.37;;;5.36;68.03
50310;BME280;36207;51.850;21.698;2023-04-28T05:30:52;100457.40;;;5.54;67.87
50310;BME280;36207;51.850;21.698;2023-04-28T05:33:18;100458.63;;;5.68;67.86
50310;BME280;36207;51.850;21.698;2023-04-28T05:35:45;100463.20;;;5.84;67.86
50310;BME280;36207;51.850;21.698;2023-04-28T05:38:11;100460.58;;;6.00;67.85
50310;BME280;36207;51.850;21.698;2023-04-28T05:40:37;100460.79;;;6.15;67.96
50310;BME280;36207;51.850;21.698;2023-04-28T05:43:04;100460.42;;;6.29;67.61
50310;BME280;36207;51.850;21.698;2023-04-28T05:45:30;100463.31;;;6.43;67.52
50310;BME280;36207;51.850;21.698;2023-04-28T05:47:56;100460.14;;;6.55;67.49
50310;BME280;36207;51.850;21.698;2023-04-28T05:50:23;100457.98;;;6.65;67.39
50310;BME280;36207;51.850;21.698;2023-04-28T05:52:49;100460.14;;;6.76;67.39
50310;BME280;36207;51.850;21.698;2023-04-28T05:55:16;100467.65;;;6.84;67.27
50310;BME280;36207;51.850;21.698;2023-04-28T05:57:42;100461.50;;;6.91;67.22
50310;BME280;36207;51.850;21.698;2023-04-28T06:00:09;100461.73;;;6.98;67.02
50310;BME280;36207;51.850;21.698;2023-04-28T06:02:36;100464.24;;;7.07;66.78
50310;BME280;36207;51.850;21.698;2023-04-28T06:05:03;100466.59;;;7.14;66.52
50310;BME280;36207;51.850;21.698;2023-04-28T06:07:29;100470.81;;;7.22;66.46
50310;BME280;36207;51.850;21.698;2023-04-28T06:09:55;100472.12;;;7.31;66.37
50310;BME280;36207;51.850;21.698;2023-04-28T06:12:22;100473.26;;;7.39;66.11
50310;BME280;36207;51.850;21.698;2023-04-28T06:14:48;100475.77;;;7.50;66.08
50310;BME280;36207;51.850;21.698;2023-04-28T06:17:14;100476.58;;;7.62;66.10
50310;BME280;36207;51.850;21.698;2023-04-28T06:19:41;100475.67;;;7.73;66.01
50310;BME280;36207;51.850;21.698;2023-04-28T06:22:07;100477.45;;;7.83;66.19
50310;BME280;36207;51.850;21.698;2023-04-28T06:24:34;100476.34;;;7.95;66.08
50310;BME280;36207;51.850;21.698;2023-04-28T06:27:01;100476.89;;;8.05;65.87
50310;BME280;36207;51.850;21.698;2023-04-28T06:29:28;100475.98;;;8.17;65.69
50310;BME280;36207;51.850;21.698;2023-04-28T06:31:54;100474.23;;;8.27;65.75
50310;BME280;36207;51.850;21.698;2023-04-28T06:34:25;100477.05;;;8.42;66.01
50310;BME280;36207;51.850;21.698;2023-04-28T06:36:58;100475.08;;;8.56;65.67
50310;BME280;36207;51.850;21.698;2023-04-28T06:39:25;100481.16;;;8.70;65.55
50310;BME280;36207;51.850;21.698;2023-04-28T06:41:52;100481.63;;;8.83;65.46
50310;BME280;36207;51.850;21.698;2023-04-28T06:44:18;100479.02;;;8.94;65.37
50310;BME280;36207;51.850;21.698;2023-04-28T06:46:45;100477.98;;;9.06;65.36
50310;BME280;36207;51.850;21.698;2023-04-28T06:49:11;100483.43;;;9.19;65.36
50310;BME280;36207;51.850;21.698;2023-04-28T06:51:37;100482.34;;;9.29;64.96
50310;BME280;36207;51.850;21.698;2023-04-28T06:54:04;100483.30;;;9.39;64.52
50310;BME280;36207;51.850;21.698;2023-04-28T06:56:30;100482.23;;;9.49;64.41
50310;BME280;36207;51.850;21.698;2023-04-28T06:58:57;100480.65;;;9.59;64.35
50310;BME280;36207;51.850;21.698;2023-04-28T07:01:24;100480.58;;;9.70;63.68
50310;BME280;36207;51.850;21.698;2023-04-28T07:03:51;100481.45;;;9.80;63.26
50310;BME280;36207;51.850;21.698;2023-04-28T07:06:17;100484.64;;;9.89;63.06
50310;BME280;36207;51.850;21.698;2023-04-28T07:08:44;100485.70;;;10.00;63.13
50310;BME280;36207;51.850;21.698;2023-04-28T07:11:10;100483.00;;;10.12;62.97
50310;BME280;36207;51.850;21.698;2023-04-28T07:13:36;100481.10;;;10.25;62.89
50310;BME280;36207;51.850;21.698;2023-04-28T07:16:03;100481.42;;;10.35;62.16
50310;BME280;36207;51.850;21.698;2023-04-28T07:18:29;100483.16;;;10.44;62.02
50310;BME280;36207;51.850;21.698;2023-04-28T07:20:56;100481.73;;;10.54;61.67
50310;BME280;36207;51.850;21.698;2023-04-28T07:23:22;100482.45;;;10.63;61.45
50310;BME280;36207;51.850;21.698;2023-04-28T07:25:48;100484.35;;;10.74;61.25
50310;BME280;36207;51.850;21.698;2023-04-28T07:28:15;100475.76;;;10.82;60.73
50310;BME280;36207;51.850;21.698;2023-04-28T07:30:41;100471.98;;;10.91;60.39
50310;BME280;36207;51.850;21.698;2023-04-28T07:33:07;100467.17;;;10.99;60.12
50310;BME280;36207;51.850;21.698;2023-04-28T07:35:34;100464.85;;;11.08;60.13
50310;BME280;36207;51.850;21.698;2023-04-28T07:38:01;100465.08;;;11.19;60.07
50310;BME280;36207;51.850;21.698;2023-04-28T07:40:27;100462.96;;;11.31;60.37
50310;BME280;36207;51.850;21.698;2023-04-28T07:42:54;100458.17;;;11.44;60.61
50310;BME280;36207;51.850;21.698;2023-04-28T07:45:20;100455.30;;;11.58;60.03
50310;BME280;36207;51.850;21.698;2023-04-28T07:47:46;100454.89;;;11.70;59.47
50310;BME280;36207;51.850;21.698;2023-04-28T07:50:12;100452.75;;;11.80;59.57
50310;BME280;36207;51.850;21.698;2023-04-28T07:52:39;100447.27;;;11.91;60.07
50310;BME280;36207;51.850;21.698;2023-04-28T07:55:06;100446.83;;;12.07;60.62
50310;BME280;36207;51.850;21.698;2023-04-28T07:57:32;100442.23;;;12.16;58.90
50310;BME280;36207;51.850;21.698;2023-04-28T07:59:59;100440.77;;;12.18;58.63
50310;BME280;36207;51.850;21.698;2023-04-28T08:02:26;100443.79;;;12.15;58.19
50310;BME280;36207;51.850;21.698;2023-04-28T08:04:53;100444.74;;;12.04;57.88
50310;BME280;36207;51.850;21.698;2023-04-28T08:07:19;100448.02;;;11.89;56.77
50310;BME280;36207;51.850;21.698;2023-04-28T08:09:46;100443.98;;;11.76;56.59
50310;BME280;36207;51.850;21.698;2023-04-28T08:12:13;100441.86;;;11.62;56.33
50310;BME280;36207;51.850;21.698;2023-04-28T08:14:40;100441.89;;;11.59;55.98
50310;BME280;36207;51.850;21.698;2023-04-28T08:17:06;100447.78;;;11.55;56.35
50310;BME280;36207;51.850;21.698;2023-04-28T08:19:32;100445.10;;;11.51;56.16
50310;BME280;36207;51.850;21.698;2023-04-28T08:21:59;100447.19;;;11.45;56.18
50310;BME280;36207;51.850;21.698;2023-04-28T08:24:30;100446.38;;;11.39;56.24
50310;BME280;36207;51.850;21.698;2023-04-28T08:27:00;100445.08;;;11.32;55.69
50310;BME280;36207;51.850;21.698;2023-04-28T08:29:31;100445.52;;;11.24;55.88
50310;BME280;36207;51.850;21.698;2023-04-28T08:31:58;100441.30;;;11.18;55.87
50310;BME280;36207;51.850;21.698;2023-04-28T08:34:26;100445.02;;;11.13;55.54
50310;BME280;36207;51.850;21.698;2023-04-28T08:36:52;100439.45;;;11.09;55.56
50310;BME280;36207;51.850;21.698;2023-04-28T08:39:19;100440.92;;;11.06;55.60
50310;BME280;36207;51.850;21.698;2023-04-28T08:41:48;100440.95;;;11.04;55.80
50310;BME280;36207;51.850;21.698;2023-04-28T08:44:14;100439.95;;;11.03;55.94
50310;BME280;36207;51.850;21.698;2023-04-28T08:46:43;100442.38;;;11.02;55.01
50310;BME280;36207;51.850;21.698;2023-04-28T08:49:17;100435.98;;;10.99;54.51
50310;BME280;36207;51.850;21.698;2023-04-28T08:52:08;100436.65;;;10.94;52.20
50310;BME280;36207;51.850;21.698;2023-04-28T08:54:37;100436.04;;;10.85;51.50
50310;BME280;36207;51.850;21.698;2023-04-28T08:57:03;100436.48;;;10.82;52.79
50310;BME280;36207;51.850;21.698;2023-04-28T08:59:30;100431.45;;;10.84;52.19
50310;BME280;36207;51.850;21.698;2023-04-28T09:01:57;100423.77;;;10.90;52.59
50310;BME280;36207;51.850;21.698;2023-04-28T09:04:25;100422.86;;;10.93;53.09
50310;BME280;36207;51.850;21.698;2023-04-28T09:06:51;100420.34;;;10.97;53.08
50310;BME280;36207;51.850;21.698;2023-04-28T09:11:50;100412.65;;;11.02;53.68
50310;BME280;36207;51.850;21.698;2023-04-28T09:14:17;100419.25;;;11.13;54.32
50310;BME280;36207;51.850;21.698;2023-04-28T09:16:43;100416.91;;;11.37;55.28
50310;BME280;36207;51.850;21.698;2023-04-28T09:19:10;100418.45;;;11.57;54.43
50310;BME280;36207;51.850;21.698;2023-04-28T09:21:53;100417.05;;;11.67;53.36
50310;BME280;36207;51.850;21.698;2023-04-28T09:24:29;100419.59;;;11.73;52.58
50310;BME280;36207;51.850;21.698;2023-04-28T09:27:00;100418.55;;;11.75;51.37
50310;BME280;36207;51.850;21.698;2023-04-28T09:29:28;100419.30;;;11.72;50.84
50310;BME280;36207;51.850;21.698;2023-04-28T09:32:14;100417.02;;;11.69;52.32
50310;BME280;36207;51.850;21.698;2023-04-28T09:34:46;100412.52;;;11.66;51.59
50310;BME280;36207;51.850;21.698;2023-04-28T09:37:20;100411.32;;;11.64;51.57
50310;BME280;36207;51.850;21.698;2023-04-28T09:39:49;100411.34;;;11.62;51.31
50310;BME280;36207;51.850;21.698;2023-04-28T09:45:04;100405.86;;;11.58;51.35
50310;BME280;36207;51.850;21.698;2023-04-28T09:47:33;100402.65;;;11.60;52.09
50310;BME280;36207;51.850;21.698;2023-04-28T09:50:04;100401.60;;;11.63;52.02
50310;BME280;36207;51.850;21.698;2023-04-28T09:52:32;100398.14;;;11.67;52.01
50310;BME280;36207;51.850;21.698;2023-04-28T09:55:02;100397.58;;;11.75;51.76
50310;BME280;36207;51.850;21.698;2023-04-28T09:57:30;100394.98;;;11.79;51.34
50310;BME280;36207;51.850;21.698;2023-04-28T10:00:01;100392.02;;;11.81;51.54
50310;BME280;36207;51.850;21.698;2023-04-28T10:02:32;100391.30;;;11.83;51.04
50310;BME280;36207;51.850;21.698;2023-04-28T10:04:59;100386.89;;;11.82;51.43
50310;BME280;36207;51.850;21.698;2023-04-28T10:07:26;100385.33;;;11.82;51.42
50310;BME280;36207;51.850;21.698;2023-04-28T10:09:54;100380.36;;;11.78;50.77
50310;BME280;36207;51.850;21.698;2023-04-28T10:12:24;100379.23;;;11.78;50.70
50310;BME280;36207;51.850;21.698;2023-04-28T10:14:51;100376.63;;;11.77;50.51
50310;BME280;36207;51.850;21.698;2023-04-28T10:17:21;100373.39;;;11.76;50.87
50310;BME280;36207;51.850;21.698;2023-04-28T10:19:52;100367.45;;;11.75;50.42
50310;BME280;36207;51.850;21.698;2023-04-28T10:25:27;100363.64;;;11.74;50.22
50310;BME280;36207;51.850;21.698;2023-04-28T10:27:53;100359.26;;;11.73;50.09
50310;BME280;36207;51.850;21.698;2023-04-28T10:30:25;100352.36;;;11.74;50.18
50310;BME280;36207;51.850;21.698;2023-04-28T10:38:13;100348.70;;;11.81;50.28
50310;BME280;36207;51.850;21.698;2023-04-28T10:43:10;100346.28;;;11.99;51.57
50310;BME280;36207;51.850;21.698;2023-04-28T10:56:24;100338.05;;;12.25;49.96
50310;BME280;36207;51.850;21.698;2023-04-28T11:03:51;100335.64;;;12.31;50.12
50310;BME280;36207;51.850;21.698;2023-04-28T11:06:35;100332.66;;;12.33;49.79
50310;BME280;36207;51.850;21.698;2023-04-28T11:14:36;100328.79;;;12.22;49.45
50310;BME280;36207;51.850;21.698;2023-04-28T11:17:10;100329.55;;;12.18;49.42
50310;BME280;36207;51.850;21.698;2023-04-28T11:19:43;100332.02;;;12.15;49.94
50310;BME280;36207;51.850;21.698;2023-04-28T11:22:18;100331.20;;;12.16;49.87
50310;BME280;36207;51.850;21.698;2023-04-28T11:25:02;100327.73;;;12.15;49.62
50310;BME280;36207;51.850;21.698;2023-04-28T11:27:35;100325.30;;;12.15;49.64
50310;BME280;36207;51.850;21.698;2023-04-28T11:30:23;100323.34;;;12.15;49.37
50310;BME280;36207;51.850;21.698;2023-04-28T11:33:01;100323.20;;;12.15;49.24
50310;BME280;36207;51.850;21.698;2023-04-28T11:35:43;100319.33;;;12.17;49.03
50310;BME280;36207;51.850;21.698;2023-04-28T11:38:18;100317.23;;;12.18;49.16
50310;BME280;36207;51.850;21.698;2023-04-28T11:41:02;100318.28;;;12.20;49.23
50310;BME280;36207;51.850;21.698;2023-04-28T11:43:36;100317.64;;;12.21;48.96
50310;BME280;36207;51.850;21.698;2023-04-28T11:46:16;100318.52;;;12.21;49.00
50310;BME280;36207;51.850;21.698;2023-04-28T11:49:04;100314.29;;;12.22;49.67
50310;BME280;36207;51.850;21.698;2023-04-28T11:51:39;100309.67;;;12.25;49.46
50310;BME280;36207;51.850;21.698;2023-04-28T11:56:59;100302.38;;;12.36;50.18
50310;BME280;36207;51.850;21.698;2023-04-28T11:59:38;100296.59;;;12.58;50.54
50310;BME280;36207;51.850;21.698;2023-04-28T12:02:22;100300.05;;;12.72;49.22
50310;BME280;36207;51.850;21.698;2023-04-28T12:05:05;100296.61;;;12.68;47.13
50310;BME280;36207;51.850;21.698;2023-04-28T12:07:40;100291.04;;;12.58;47.01
50310;BME280;36207;51.850;21.698;2023-04-28T12:10:14;100290.08;;;12.48;47.20
50310;BME280;36207;51.850;21.698;2023-04-28T12:12:41;100285.73;;;12.47;48.09
50310;BME280;36207;51.850;21.698;2023-04-28T12:15:08;100282.23;;;12.63;49.20
50310;BME280;36207;51.850;21.698;2023-04-28T12:17:37;100283.91;;;12.87;49.29
50310;BME280;36207;51.850;21.698;2023-04-28T12:20:08;100276.93;;;13.01;48.40
50310;BME280;36207;51.850;21.698;2023-04-28T12:22:49;100276.75;;;13.04;48.06
50310;BME280;36207;51.850;21.698;2023-04-28T12:25:17;100275.44;;;12.99;47.09
50310;BME280;36207;51.850;21.698;2023-04-28T12:28:06;100273.98;;;12.95;47.62
50310;BME280;36207;51.850;21.698;2023-04-28T12:30:34;100276.64;;;12.93;47.53
50310;BME280;36207;51.850;21.698;2023-04-28T12:33:03;100271.04;;;12.90;47.68
50310;BME280;36207;51.850;21.698;2023-04-28T12:35:30;100271.16;;;12.90;47.90
50310;BME280;36207;51.850;21.698;2023-04-28T12:37:57;100265.15;;;12.99;48.44
50310;BME280;36207;51.850;21.698;2023-04-28T12:40:24;100254.69;;;13.07;48.64
50310;BME280;36207;51.850;21.698;2023-04-28T12:42:50;100251.30;;;13.11;48.27
50310;BME280;36207;51.850;21.698;2023-04-28T12:45:17;100245.48;;;13.15;47.89
50310;BME280;36207;51.850;21.698;2023-04-28T12:47:43;100245.63;;;13.30;48.41
50310;BME280;36207;51.850;21.698;2023-04-28T12:50:11;100239.38;;;13.50;48.58
50310;BME280;36207;51.850;21.698;2023-04-28T12:52:37;100234.53;;;13.71;48.91
50310;BME280;36207;51.850;21.698;2023-04-28T12:55:04;100233.68;;;13.91;47.34
50310;BME280;36207;51.850;21.698;2023-04-28T12:57:30;100232.30;;;14.04;47.20
50310;BME280;36207;51.850;21.698;2023-04-28T12:59:57;100234.34;;;14.15;44.65
50310;BME280;36207;51.850;21.698;2023-04-28T13:02:23;100227.54;;;14.17;45.59
50310;BME280;36207;51.850;21.698;2023-04-28T13:04:49;100220.14;;;14.17;45.65
50310;BME280;36207;51.850;21.698;2023-04-28T13:07:16;100218.08;;;14.23;45.74
50310;BME280;36207;51.850;21.698;2023-04-28T13:09:43;100215.58;;;14.27;44.93
50310;BME280;36207;51.850;21.698;2023-04-28T13:12:10;100215.33;;;14.27;44.70
50310;BME280;36207;51.850;21.698;2023-04-28T13:14:37;100212.77;;;14.19;45.32
50310;BME280;36207;51.850;21.698;2023-04-28T13:17:03;100212.21;;;14.10;45.41
50310;BME280;36207;51.850;21.698;2023-04-28T13:19:30;100209.61;;;14.04;44.88
50310;BME280;36207;51.850;21.698;2023-04-28T13:21:57;100207.66;;;13.95;45.07
50310;BME280;36207;51.850;21.698;2023-04-28T13:24:23;100204.22;;;13.87;45.33
50310;BME280;36207;51.850;21.698;2023-04-28T13:26:50;100205.11;;;13.80;45.65
50310;BME280;36207;51.850;21.698;2023-04-28T13:29:18;100204.86;;;13.76;46.13